Terminal Aerodrome Forecast
Issued by NWS

Home | Current Version | Previous Version | Text Only | Print | Product List | Glossary On
Versions: 1 2 3 4 5 6 7 8 9 10 11 12 13 14 15 16 17
000
FTUS46 KMTR 191800 AAA
TAFSTS
TAF AMD
KSTS 191841Z 1919/2018 VRB03KT P6SM SCT006
     FM191930 19007KT P6SM SKC
     FM200300 00000KT P6SM SKC
     FM200800 00000KT P6SM OVC007
     FM201100 00000KT 1/4SM FG OVC002=

USA.gov is the U.S. government's official web portal to all federal, state and local government web resources and services.